createdAt,value
2022-12-26T00:02:39.293Z,2.90
2022-12-26T00:08:01.031Z,3.45
2022-12-26T00:13:38.938Z,5.90
2022-12-26T00:19:03.923Z,4.97
2022-12-26T00:24:25.863Z,5.05
2022-12-26T00:29:48.446Z,3.83
2022-12-26T00:35:10.585Z,3.05
2022-12-26T00:40:32.833Z,4.40
2022-12-26T00:45:54.662Z,3.42
2022-12-26T00:51:16.515Z,4.05
2022-12-26T00:56:38.241Z,3.92
2022-12-26T01:02:00.295Z,3.33
2022-12-26T01:07:22.263Z,3.53
2022-12-26T01:12:44.418Z,3.10
2022-12-26T01:18:06.855Z,3.05
2022-12-26T01:23:29.121Z,5.05
2022-12-26T01:28:52.202Z,3.88
2022-12-26T01:34:13.914Z,6.43
2022-12-26T01:39:35.699Z,5.03
2022-12-26T01:45:18.952Z,2.75
2022-12-26T01:50:50.676Z,5.28
2022-12-26T01:56:17.024Z,2.75
2022-12-26T02:01:42.436Z,2.72
2022-12-26T02:07:05.762Z,3.50
2022-12-26T02:12:38.875Z,2.45
2022-12-26T02:18:01.129Z,2.65
2022-12-26T02:24:01.578Z,2.50
2022-12-26T02:29:23.241Z,4.20
2022-12-26T02:35:00.273Z,5.07
2022-12-26T02:40:46.351Z,6.07
2022-12-26T02:47:04.368Z,3.25
2022-12-26T02:53:28.566Z,3.60
2022-12-26T02:59:55.629Z,3.72
2022-12-26T03:05:44.445Z,3.15
2022-12-26T03:11:25.438Z,4.50
2022-12-26T03:17:10.973Z,3.78
2022-12-26T03:22:39.673Z,3.83
2022-12-26T03:28:01.499Z,4.32
2022-12-26T03:33:48.326Z,3.33
2022-12-26T03:39:18.904Z,3.15
2022-12-26T03:45:25.989Z,3.33
2022-12-26T03:51:09.274Z,2.45
2022-12-26T03:56:58.811Z,3.72
2022-12-26T04:02:40.574Z,3.20
2022-12-26T04:08:29.544Z,4.95
2022-12-26T04:14:17.708Z,2.72
2022-12-26T04:20:13.596Z,4.00
2022-12-26T04:26:08.410Z,3.20
2022-12-26T04:31:55.051Z,3.13
2022-12-26T04:37:43.568Z,2.95
2022-12-26T04:43:48.182Z,4.55
2022-12-26T04:49:30.422Z,3.72
2022-12-26T04:54:52.160Z,3.10
2022-12-26T05:00:14.376Z,5.25
2022-12-26T05:06:04.011Z,2.33
2022-12-26T05:11:27.347Z,4.03
2022-12-26T05:17:07.613Z,4.85
2022-12-26T05:22:51.499Z,4.03
2022-12-26T05:28:33.903Z,5.90
2022-12-26T05:34:08.111Z,2.78
2022-12-26T05:39:29.806Z,2.80
2022-12-26T05:44:51.563Z,4.55
2022-12-26T05:50:13.405Z,2.92
2022-12-26T05:55:35.196Z,2.25
2022-12-26T06:01:09.102Z,3.78
2022-12-26T06:06:30.870Z,2.13
2022-12-26T06:11:52.648Z,2.17
2022-12-26T06:17:14.665Z,4.80
2022-12-26T06:22:36.498Z,2.30
2022-12-26T06:27:58.231Z,3.05
2022-12-26T06:33:20.400Z,2.40
2022-12-26T06:38:43.095Z,2.63
2022-12-26T06:44:05.095Z,2.92
2022-12-26T06:49:32.456Z,2.35
2022-12-26T06:54:54.569Z,3.88
2022-12-26T07:00:16.538Z,3.38
2022-12-26T07:05:38.768Z,3.22
2022-12-26T07:11:00.590Z,3.40
2022-12-26T07:16:23.549Z,2.28
2022-12-26T07:21:45.351Z,2.72
2022-12-26T07:27:07.044Z,2.17
2022-12-26T07:32:28.844Z,3.38
2022-12-26T07:37:50.591Z,2.25
2022-12-26T07:43:12.319Z,4.63
2022-12-26T07:48:34.031Z,6.75
2022-12-26T07:53:55.789Z,3.72
2022-12-26T07:59:17.927Z,3.55
2022-12-26T08:04:39.673Z,4.05
2022-12-26T08:10:01.398Z,3.38
2022-12-26T08:15:23.132Z,3.20
2022-12-26T08:20:44.805Z,3.42
2022-12-26T08:26:11.758Z,4.25
2022-12-26T08:31:33.788Z,4.35
2022-12-26T08:36:55.525Z,3.53
2022-12-26T08:42:17.239Z,3.38
2022-12-26T08:47:39.157Z,4.85
2022-12-26T08:53:00.926Z,4.63
2022-12-26T08:58:22.830Z,5.65
2022-12-26T09:03:44.778Z,6.28
2022-12-26T09:09:08.065Z,5.00
2022-12-26T09:14:29.836Z,7.75
2022-12-26T09:19:51.527Z,3.55
2022-12-26T09:25:13.333Z,3.78
2022-12-26T09:30:36.995Z,4.40
2022-12-26T09:36:03.910Z,5.25
2022-12-26T09:41:58.449Z,3.72
2022-12-26T09:47:34.335Z,7.55
2022-12-26T09:52:59.055Z,5.10
2022-12-26T09:58:30.215Z,4.05
2022-12-26T10:03:56.341Z,6.53
2022-12-26T10:09:39.318Z,9.15
2022-12-26T10:15:28.895Z,5.45
2022-12-26T10:21:09.527Z,8.50
2022-12-26T10:26:44.793Z,5.18
2022-12-26T10:32:12.601Z,5.53
2022-12-26T10:37:41.031Z,5.03
2022-12-26T10:43:23.892Z,4.93
2022-12-26T10:48:46.897Z,6.50
2022-12-26T10:54:15.564Z,4.90
2022-12-26T10:59:48.530Z,5.80
2022-12-26T11:05:39.901Z,6.68
2022-12-26T11:11:12.061Z,4.65
2022-12-26T11:16:38.357Z,3.35
2022-12-26T11:22:20.878Z,4.43
2022-12-26T11:27:48.920Z,5.40
2022-12-26T11:33:18.273Z,5.60
2022-12-26T11:38:47.229Z,5.05
2022-12-26T11:44:15.623Z,4.25
2022-12-26T11:50:00.364Z,2.53
2022-12-26T11:55:22.420Z,2.15
2022-12-26T12:00:50.288Z,2.00
2022-12-26T12:06:19.585Z,4.30
2022-12-26T12:12:15.326Z,4.80
2022-12-26T12:17:51.836Z,1.73
2022-12-26T12:23:34.127Z,2.22
2022-12-26T12:29:01.686Z,2.92
2022-12-26T12:34:42.128Z,1.73
2022-12-26T12:40:22.564Z,3.20
2022-12-26T12:46:02.546Z,2.10
2022-12-26T12:51:39.588Z,1.98
2022-12-26T12:57:45.534Z,3.72
2022-12-26T13:03:13.263Z,1.23
2022-12-26T13:08:50.675Z,1.02
2022-12-26T13:14:51.016Z,1.85
2022-12-26T13:20:18.301Z,1.55
2022-12-26T13:25:46.090Z,1.70
2022-12-26T13:31:07.948Z,1.10
2022-12-26T13:36:39.696Z,0.77
2022-12-26T13:42:28.950Z,2.88
2022-12-26T13:47:50.839Z,1.17
2022-12-26T13:53:24.595Z,1.63
2022-12-26T13:58:46.246Z,0.88
2022-12-26T14:04:15.517Z,1.25
2022-12-26T14:10:14.633Z,1.35
2022-12-26T14:15:50.807Z,1.50
2022-12-26T14:21:25.722Z,1.63
2022-12-26T14:27:11.391Z,1.58
2022-12-26T14:32:39.116Z,1.75
2022-12-26T14:38:32.200Z,1.40
2022-12-26T14:43:57.966Z,0.82
2022-12-26T14:49:36.373Z,0.85
2022-12-26T14:54:58.333Z,2.28
2022-12-26T15:00:22.970Z,1.50
2022-12-26T15:05:48.622Z,1.98
2022-12-26T15:11:48.827Z,2.20
2022-12-26T15:17:37.042Z,2.17
2022-12-26T15:23:33.104Z,2.15
2022-12-26T15:29:21.782Z,1.67
2022-12-26T15:35:05.991Z,2.17
2022-12-26T15:40:33.065Z,1.55
2022-12-26T15:45:57.512Z,2.83
2022-12-26T15:52:10.348Z,3.45
2022-12-26T15:57:45.754Z,2.20
2022-12-26T16:03:22.318Z,2.60
2022-12-26T16:09:05.874Z,2.60
2022-12-26T16:14:29.693Z,2.20
2022-12-26T16:19:52.741Z,1.88
2022-12-26T16:25:20.163Z,1.55
2022-12-26T16:30:42.271Z,1.77
2022-12-26T16:36:04.302Z,3.53
2022-12-26T16:41:28.776Z,1.50
2022-12-26T16:46:50.538Z,2.88
2022-12-26T16:52:45.666Z,2.50
2022-12-26T16:58:24.655Z,5.40
2022-12-26T17:03:54.208Z,2.25
2022-12-26T17:09:17.381Z,2.50
2022-12-26T17:14:42.724Z,1.90
2022-12-26T17:20:33.857Z,3.72
2022-12-26T17:26:17.551Z,3.15
2022-12-26T17:31:43.380Z,2.75
2022-12-26T17:37:18.932Z,5.32
2022-12-26T17:42:49.150Z,6.28
2022-12-26T17:48:11.914Z,5.20
2022-12-26T17:53:36.548Z,5.47
2022-12-26T17:58:58.239Z,8.65
2022-12-26T18:04:19.922Z,5.93
2022-12-26T18:09:42.957Z,6.93
2022-12-26T18:15:05.236Z,11.77
2022-12-26T18:20:29.652Z,9.77
2022-12-26T18:25:54.589Z,2.50
2022-12-26T18:31:16.958Z,1.98
2022-12-26T18:36:41.134Z,1.00
2022-12-26T18:42:02.914Z,0.60
2022-12-26T18:47:24.681Z,0.95
2022-12-26T18:52:51.557Z,2.15
2022-12-26T18:58:15.141Z,1.17
2022-12-26T19:03:36.895Z,1.35
2022-12-26T19:08:58.775Z,4.47
2022-12-26T19:14:21.845Z,1.13
2022-12-26T19:19:44.097Z,0.70
2022-12-26T19:25:06.180Z,2.08
2022-12-26T19:30:28.945Z,2.10
2022-12-26T19:35:56.141Z,2.33
2022-12-26T19:41:17.874Z,1.83
2022-12-26T19:46:39.688Z,1.27
2022-12-26T19:52:01.786Z,1.88
2022-12-26T19:57:23.602Z,3.23
2022-12-26T20:02:45.963Z,4.18
2022-12-26T20:08:09.675Z,2.63
2022-12-26T20:13:31.454Z,1.63
2022-12-26T20:18:54.067Z,1.40
2022-12-26T20:24:16.713Z,0.50
2022-12-26T20:29:38.463Z,2.00
2022-12-26T20:35:00.238Z,3.70
2022-12-26T20:40:23.135Z,1.95
2022-12-26T20:45:46.908Z,1.98
2022-12-26T20:51:13.150Z,0.93
2022-12-26T20:56:35.701Z,2.60
2022-12-26T21:01:57.507Z,0.80
2022-12-26T21:07:19.306Z,1.05
2022-12-26T21:12:41.127Z,1.40
2022-12-26T21:18:04.089Z,2.88
2022-12-26T21:23:25.804Z,1.80
2022-12-26T21:28:47.557Z,2.30
2022-12-26T21:34:12.287Z,4.93
2022-12-26T21:39:35.770Z,2.25
2022-12-26T21:44:57.552Z,3.47
2022-12-26T21:50:19.310Z,2.30
2022-12-26T21:55:41.113Z,2.42
2022-12-26T22:01:02.981Z,2.20
2022-12-26T22:06:24.694Z,2.60
2022-12-26T22:12:05.078Z,3.95
2022-12-26T22:17:26.794Z,1.00
2022-12-26T22:22:49.223Z,1.38
2022-12-26T22:28:10.948Z,2.00
2022-12-26T22:33:33.364Z,1.85
2022-12-26T22:38:55.549Z,0.90
2022-12-26T22:44:17.251Z,3.45
2022-12-26T22:49:38.975Z,1.95
2022-12-26T22:55:00.676Z,1.85
2022-12-26T23:00:22.441Z,1.80
2022-12-26T23:05:44.805Z,1.95
2022-12-26T23:11:06.810Z,2.83
2022-12-26T23:16:35.822Z,1.80
2022-12-26T23:22:00.268Z,2.20
2022-12-26T23:27:40.406Z,2.38
2022-12-26T23:33:03.256Z,2.90
2022-12-26T23:38:25.158Z,4.18
2022-12-26T23:43:46.842Z,3.40
2022-12-26T23:49:08.607Z,3.30
2022-12-26T23:54:30.316Z,2.97
2022-12-26T23:59:52.169Z,2.95
